Latest Weather Observations for Inverell RS

IDN60801

Issued at 9:05 pm EST Tuesday 16 September 2014 (issued every 30 minutes, with the page automatically refreshed every 10 minutes)

About weather observations | Map of weather stations | Latest weather observations for NSW | Other Formats
Station Details ID: 056018 Name: INVERELL RESEARCH CENTRE Lat: -29.78 Lon: 151.08 Height: 664.0 m
Data from the previous 72 hours. | See also: Recent months at Inverell RS
Date/Time
EST
Temp
°C
App
Temp
°C
Dew
Point
Rel
Hum
%
Delta-T
°C
Wind Press
QNH
hPa
Press
MSL
hPa
Rain
since 9 am
mm
Dir
 
Spd
km/h
Gust
km/h
Spd
kts
Gust
kts
16/09:00pm 14.7 12.0 0.5 38 6.3 N 4 7 2 4 1015.2 1014.3 0.0
16/08:30pm 15.0 11.7 0.0 36 6.6 NNW 7 11 4 6 1015.0 - 0.0
16/08:00pm 15.7 11.9 -0.9 32 7.2 WNW 9 15 5 8 1014.8 - 0.0
16/07:30pm 15.3 11.9 -2.0 30 7.3 WNW 6 9 3 5 1014.6 - 0.0
16/07:00pm 16.5 12.8 -2.8 26 8.1 WNW 7 11 4 6 1014.2 - 0.0
16/06:30pm 17.4 13.4 -2.6 25 8.5 WNW 9 15 5 8 1013.8 - 0.0
16/06:00pm 18.4 14.4 -2.5 24 9.0 WNW 9 19 5 10 1013.3 1012.3 0.0
16/05:30pm 19.6 14.9 -2.0 23 9.5 WNW 13 20 7 11 1012.9 - 0.0
16/05:00pm 20.8 13.7 -4.1 18 10.6 WNW 24 44 13 24 1012.6 - 0.0
16/04:30pm 21.5 15.7 -0.4 23 10.1 WNW 20 39 11 21 1012.2 - 0.0
16/04:00pm 21.9 15.3 -0.4 22 10.3 WNW 24 44 13 24 1012.2 - 0.0
16/03:30pm 22.2 15.4 0.6 24 10.2 NW 26 39 14 21 1012.0 - 0.0
16/03:00pm 22.5 16.9 1.5 25 10.1 WNW 20 - 11 - - 1011.1 0.0
16/02:30pm 22.9 16.6 1.3 24 10.4 WNW 24 44 13 24 1012.2 - 0.0
16/02:13pm 22.8 15.7 1.1 24 10.4 WNW 28 52 15 28 1012.3 - 0.0
16/02:12pm 22.8 15.7 1.1 24 10.4 WNW 28 52 15 28 1012.3 - 0.0
16/02:00pm 22.9 16.2 1.3 24 10.4 WNW 26 41 14 22 1012.2 - 0.0
16/01:46pm 23.5 16.5 2.1 24 10.5 NW 28 46 15 25 1012.3 - 0.0
16/01:45pm 23.5 16.5 2.1 24 10.5 NW 28 46 15 25 1012.3 - 0.0
16/01:30pm 23.8 17.0 3.0 25 10.4 NW 28 44 15 24 1012.3 - 0.0
16/01:01pm 24.1 17.3 3.2 25 10.5 WNW 28 52 15 28 1012.6 - 0.0
16/01:00pm 23.8 17.4 3.0 25 10.4 NW 26 41 14 22 1012.6 - 0.0
16/12:30pm 23.3 16.3 2.0 24 10.4 NW 28 39 15 21 1013.1 - 0.0
16/12:00pm 22.9 17.3 3.5 28 9.7 NW 22 39 12 21 1013.4 1012.5 0.0
16/11:30am 22.6 17.5 4.2 30 9.3 NNW 20 35 11 19 1014.2 - 0.0
16/11:00am 21.6 16.9 6.0 36 8.1 NNW 20 30 11 16 1014.6 - 0.0
16/10:30am 20.1 15.1 6.4 41 7.1 NNW 22 33 12 18 1015.1 - 0.0
16/10:00am 19.6 15.0 6.7 43 6.7 N 20 30 11 16 1015.2 - 0.0
16/09:30am 18.4 12.7 6.6 46 6.1 NNW 26 33 14 18 1015.4 - 0.0
16/09:00am 17.5 14.2 6.6 48 5.6 N 13 20 7 11 1015.5 1014.6 0.0
16/08:30am 13.8 11.1 7.3 65 3.3 N 11 17 6 9 1016.0 - 0.0
16/08:00am 12.8 9.4 7.5 70 2.7 N 15 22 8 12 1016.2 - 0.0
16/07:30am 12.9 8.7 7.6 70 2.7 N 19 26 10 14 1017.1 - 0.0
16/07:00am 13.2 11.1 8.1 71 2.6 NNE 9 13 5 7 1016.1 - 0.0
16/06:30am 11.5 9.6 7.5 76 2.0 N 7 9 4 5 1016.3 - 0.0
16/06:00am 11.8 9.5 7.6 75 2.1 NNW 9 19 5 10 1016.0 1015.1 0.0
16/05:30am 11.5 9.5 7.1 74 2.2 NNE 7 13 4 7 1015.3 - 0.0
16/05:00am 10.7 9.3 7.1 78 1.8 ENE 4 7 2 4 1015.1 - 0.0
16/04:30am 10.5 8.7 7.1 79 1.7 ENE 6 7 3 4 1015.0 - 0.0
16/04:00am 10.9 8.8 6.8 76 2.0 ENE 7 9 4 5 1015.2 - 0.0
16/03:30am 10.7 8.8 6.6 76 2.0 ENE 6 7 3 4 1015.1 - 0.0
16/03:00am 10.5 8.6 6.6 77 1.9 E 6 11 3 6 1015.0 1014.1 0.0
16/02:30am 10.9 8.6 5.9 71 2.4 ENE 7 9 4 5 1015.0 - 0.0
16/02:00am 10.6 9.5 5.3 70 2.5 CALM 0 0 0 0 1015.2 - 0.0
16/01:30am 11.1 8.6 4.5 64 3.1 E 7 9 4 5 1015.5 - 0.0
16/01:00am 11.0 8.2 3.3 59 3.5 SE 7 11 4 6 1015.6 - 0.0
16/12:30am 10.7 7.7 1.8 54 3.9 ESE 7 11 4 6 1016.0 - 0.0
16/12:00am 10.7 7.2 1.2 52 4.1 SSE 9 9 5 5 1016.1 1015.3 0.0
 
Date/Time
EST
Temp
°C
App
Temp
°C
Dew
Point
Rel
Hum
%
Delta-T
°C
Wind Press
QNH
hPa
Press
MSL
hPa
Rain
since 9 am
mm
Dir
 
Spd
km/h
Gust
km/h
Spd
kts
Gust
kts
15/11:30pm 13.4 11.2 0.9 42 5.5 SE 2 6 1 3 1015.8 - 0.0
15/11:00pm 14.4 11.4 0.9 40 6.0 S 6 9 3 5 1015.9 - 0.0
15/10:30pm 13.9 10.8 0.1 39 6.0 S 6 7 3 4 1016.0 - 0.0
15/10:00pm 13.1 9.6 1.1 44 5.3 SSE 9 13 5 7 1016.3 - 0.0
15/09:30pm 13.1 9.6 1.1 44 5.3 SSE 9 11 5 6 1016.4 - 0.0
15/09:00pm 13.7 10.5 0.5 40 5.8 S 7 9 4 5 1016.5 1015.6 0.0
15/08:30pm 14.8 12.9 0.3 37 6.4 CALM 0 0 0 0 1016.4 - 0.0
15/08:00pm 17.9 13.9 -2.0 26 8.6 WSW 9 9 5 5 1016.3 - 0.0
15/07:30pm 18.0 14.0 -2.2 25 8.7 WSW 9 11 5 6 1016.1 - 0.0
15/07:00pm 18.3 14.3 -2.4 24 8.9 WSW 9 11 5 6 1015.9 - 0.0
15/06:30pm 18.4 14.4 -2.2 24 8.9 WSW 9 11 5 6 1015.6 - 0.0
15/06:00pm 18.8 15.4 -0.3 27 8.6 W 7 9 4 5 1015.4 1014.5 0.0
15/05:30pm 19.9 17.5 -0.3 25 9.2 W 2 11 1 6 1015.1 - 0.0
15/05:00pm 22.3 18.8 -1.5 20 10.8 WNW 7 13 4 7 1015.0 - 0.0
15/04:30pm 22.4 18.4 0.2 23 10.4 NNW 11 15 6 8 1014.9 - 0.0
15/04:00pm 23.4 20.5 1.5 23 10.6 W 6 9 3 5 1014.9 - 0.0
15/03:30pm 23.3 19.4 1.3 23 10.6 W 11 20 6 11 1014.9 - 0.0
15/03:00pm 22.7 17.7 1.2 24 10.3 NW 17 28 9 15 1015.1 1014.2 0.0
15/02:30pm 22.9 19.1 1.6 24 10.3 WNW 11 20 6 11 1015.3 - 0.0
15/02:00pm 22.6 18.0 1.3 24 10.2 WNW 15 30 8 16 1015.6 - 0.0
15/01:30pm 23.0 17.5 0.7 23 10.6 NW 19 30 10 16 1016.2 - 0.0
15/01:00pm 22.0 17.9 2.5 27 9.5 WNW 13 22 7 12 1016.6 - 0.0
15/12:30pm 22.8 18.5 3.3 28 9.7 NW 15 26 8 14 1017.0 - 0.0
15/12:00pm 21.8 18.6 5.2 34 8.5 WNW 11 28 6 15 1017.6 1016.7 0.0
15/11:30am 21.8 17.6 7.6 40 7.6 NW 19 28 10 15 1018.2 - 0.0
15/11:00am 21.0 17.2 9.1 46 6.5 N 19 26 10 14 1018.6 - 0.0
15/10:30am 19.9 17.7 9.3 50 5.8 NNE 11 19 6 10 1019.2 - 0.0
15/10:00am 19.1 16.0 8.9 51 5.5 N 15 20 8 11 1019.6 - 0.0
15/09:30am 18.0 15.3 8.9 55 4.9 N 13 24 7 13 1020.0 - 0.0
15/09:00am 16.5 13.9 9.2 62 3.9 N 13 19 7 10 1020.1 1019.3 0.0
15/08:30am 15.9 12.9 9.1 64 3.6 N 15 26 8 14 1020.3 - 0.0
15/08:00am 14.7 12.3 8.6 67 3.2 N 11 17 6 9 1020.2 - 0.0
15/07:30am 13.8 11.6 7.7 66 3.1 NE 9 11 5 6 1020.0 - 0.0
15/07:00am 12.9 11.2 7.6 70 2.7 NNE 6 7 3 4 1019.8 - 0.0
15/06:30am 10.3 8.6 5.9 74 2.1 N 4 7 2 4 1019.6 - 0.0
15/06:00am 9.9 8.5 5.7 75 2.0 NNW 2 7 1 4 1019.4 1018.5 0.0
15/05:30am 9.2 8.2 5.6 78 1.7 CALM 0 0 0 0 1019.1 - 0.0
15/05:00am 9.7 8.7 5.7 76 1.9 CALM 0 6 0 3 1018.8 - 0.0
15/04:30am 10.0 8.2 5.6 74 2.1 ESE 4 7 2 4 1018.7 - 0.0
15/04:00am 9.4 8.0 5.6 77 1.8 E 2 7 1 4 1018.7 - 0.0
15/03:30am 11.4 9.3 5.6 67 2.8 N 6 9 3 5 1018.6 - 0.0
15/03:00am 10.9 8.1 5.2 68 2.7 N 9 28 5 15 1018.6 1017.7 0.0
15/02:30am 11.6 9.4 5.3 65 3.0 NW 6 7 3 4 1018.7 - 0.0
15/02:00am 12.7 10.2 5.0 59 3.7 S 7 13 4 7 1019.1 - 0.0
15/01:30am 12.6 9.0 4.8 59 3.7 SW 13 24 7 13 1019.3 - 0.0
15/01:00am 12.1 9.3 5.2 62 3.3 SE 9 13 5 7 1019.4 - 0.0
15/12:30am 11.3 10.3 5.4 67 2.8 CALM 0 6 0 3 1019.5 - 0.0
15/12:00am 12.8 11.7 5.3 60 3.6 CALM 0 0 0 0 1019.7 1018.9 0.0
 
Date/Time
EST
Temp
°C
App
Temp
°C
Dew
Point
Rel
Hum
%
Delta-T
°C
Wind Press
QNH
hPa
Press
MSL
hPa
Rain
since 9 am
mm
Dir
 
Spd
km/h
Gust
km/h
Spd
kts
Gust
kts
14/11:30pm 13.4 11.2 5.4 58 3.9 S 6 11 3 6 1019.8 - 0.0
14/11:00pm 13.0 10.5 4.6 56 4.0 S 7 11 4 6 1019.8 - 0.0
14/10:30pm 12.5 9.7 5.0 60 3.6 S 9 11 5 6 1019.7 - 0.0
14/10:00pm 13.3 11.9 5.7 60 3.7 S 2 9 1 5 1020.0 - 0.0
14/09:30pm 13.7 11.4 5.0 55 4.2 SSE 6 7 3 4 1020.0 - 0.0
14/09:00pm 13.9 12.8 5.2 55 4.2 CALM 0 0 0 0 1019.9 1019.1 0.0
14/08:30pm 13.9 12.8 5.0 55 4.3 CALM 0 0 0 0 1019.8 - 0.0
14/08:00pm 14.6 13.1 4.9 52 4.7 W 2 6 1 3 1019.7 - 0.0
14/07:30pm 15.5 13.0 4.6 48 5.3 W 7 11 4 6 1019.5 - 0.0
14/07:00pm 15.7 13.2 4.6 47 5.4 W 7 9 4 5 1019.5 - 0.0
14/06:30pm 17.0 14.4 4.3 43 6.2 W 7 7 4 4 1019.3 - 0.0
14/06:00pm 17.2 14.5 3.7 40 6.5 W 7 7 4 4 1019.2 1018.3 0.0
14/05:30pm 18.7 16.0 2.5 34 7.7 W 6 7 3 4 1019.1 - 0.0
14/05:00pm 21.0 17.8 1.0 26 9.4 W 7 11 4 6 1019.0 - 0.0
14/04:30pm 21.2 17.6 0.7 25 9.6 WNW 9 15 5 8 1018.8 - 0.0
14/04:00pm 21.5 17.2 0.9 25 9.7 W 13 19 7 10 1018.8 - 0.0
14/03:30pm 22.0 18.4 3.1 29 9.3 W 11 19 6 10 1019.1 - 0.0
14/03:00pm 21.0 17.5 3.6 32 8.6 W 11 20 6 11 1019.3 1018.4 0.0
14/02:30pm 21.6 18.3 4.6 33 8.6 WSW 11 17 6 9 1019.4 - 0.0
14/02:00pm 21.7 17.7 2.9 29 9.2 WNW 13 26 7 14 1019.8 - 0.0
14/01:30pm 21.1 17.4 4.3 33 8.4 WNW 13 26 7 14 1020.1 - 0.0
14/01:00pm 21.2 17.7 5.6 36 8.0 W 13 20 7 11 1020.6 - 0.0
14/12:30pm 21.0 17.9 7.4 41 7.2 WNW 13 26 7 14 1021.1 - 0.0
14/12:00pm 20.7 16.9 7.5 42 7.0 NW 17 24 9 13 1021.6 1020.8 0.0
14/11:30am 19.8 16.9 8.2 47 6.2 NW 13 24 7 13 1022.2 - 0.0
14/11:00am 19.5 16.2 8.0 47 6.1 NW 15 26 8 14 1022.8 - 0.0
14/10:30am 18.6 15.7 8.0 50 5.6 NW 13 26 7 14 1023.2 - 0.0
14/10:00am 17.5 15.4 8.2 54 4.9 NNW 9 17 5 9 1023.5 - 0.0
14/09:30am 16.9 13.9 7.7 54 4.8 NNW 13 19 7 10 1023.8 - 0.0
14/09:00am 16.3 14.2 9.8 65 3.5 NNE 11 15 6 8 1023.9 1023.1 0.0
14/08:30am 14.9 12.5 7.2 60 3.9 NNE 9 13 5 7 1024.1 - 0.0
14/08:00am 13.5 11.3 6.4 62 3.5 E 7 7 4 4 1024.0 - 0.0
14/07:30am 11.8 9.8 6.3 69 2.7 E 6 7 3 4 1023.8 - 0.0
14/07:00am 9.7 8.9 6.4 80 1.6 CALM 0 0 0 0 1023.5 - 0.0
14/06:30am 8.1 5.9 5.5 84 1.2 SSE 6 7 3 4 1023.1 - 0.0
14/06:00am 7.5 5.3 5.1 85 1.1 SSE 6 7 3 4 1023.1 1022.3 0.0
14/05:30am 7.5 6.4 5.1 85 1.1 CALM 0 7 0 4 1022.8 - 0.0
14/05:00am 8.1 6.3 5.5 84 1.2 SSE 4 7 2 4 1022.9 - 0.0
14/04:30am 7.9 6.1 5.5 85 1.1 SE 4 7 2 4 1022.7 - 0.0
14/04:00am 9.0 7.2 5.6 79 1.6 E 4 7 2 4 1022.6 - 0.0
14/03:30am 8.6 7.6 5.8 82 1.3 CALM 0 0 0 0 1022.5 - 0.0
14/03:00am 8.6 7.7 6.1 84 1.2 CALM 0 0 0 0 1022.7 1021.9 0.0
14/02:30am 9.1 7.9 6.4 83 1.3 N 2 6 1 3 1023.0 - 0.0
14/02:00am 9.3 7.2 5.9 79 1.6 N 6 7 3 4 1023.2 - 0.0
14/01:30am 10.2 8.0 6.3 77 1.9 NNE 7 11 4 6 1023.4 - 0.0
14/01:00am 10.7 8.2 6.4 75 2.1 NNE 9 11 5 6 1023.6 - 0.0
14/12:30am 10.7 8.5 6.4 75 2.1 NNE 7 11 4 6 1023.9 - 0.0
14/12:00am 11.4 9.3 6.7 73 2.3 NE 7 9 4 5 1024.1 1023.3 0.0
 
Date/Time
EST
Temp
°C
App
Temp
°C
Dew
Point
Rel
Hum
%
Delta-T
°C
Wind Press
QNH
hPa
Press
MSL
hPa
Rain
since 9 am
mm
Dir
 
Spd
km/h
Gust
km/h
Spd
kts
Gust
kts
13/11:30pm 10.9 8.8 6.8 76 2.0 E 7 9 4 5 1024.0 - 0.0
13/11:00pm 10.9 8.8 6.8 76 2.0 ENE 7 9 4 5 1024.1 - 0.0
13/10:30pm 11.9 9.9 7.1 72 2.4 NE 7 9 4 5 1024.3 - 0.0
13/10:00pm 12.0 9.8 6.3 68 2.8 ENE 7 9 4 5 1024.3 - 0.0
13/09:30pm 12.4 10.2 6.3 66 3.0 ENE 7 11 4 6 1024.2 - 0.0

Other Formats:

Comma delimited format used in spreadsheet applications
http://www.bom.gov.au/fwo/IDN60801/IDN60801.94541.axf

JavaScript Object Notation format (JSON) in row-major order
http://www.bom.gov.au/fwo/IDN60801/IDN60801.94541.json